Time;durP1;ratioP1;P1;durP2;ratioP2;P2;SDS_P1;SDS_P2;PMS_P1;PMS_P2;Temp;Humidity;BMP_temperature;BMP_pressure;BME280_temperature;BME280_humidity;BME280_pressure;Samples;Min_cycle;Max_cycle;Signal;HPM_P1;HPM_P2
2022/11/30 00:02:24;;;;;;;69.27;32.60;;;4.90;99.90;;;;;;5014611;28;20188;-50
2022/11/30 00:04:51;;;;;;;70.03;32.83;;;4.90;99.90;;;;;;5024546;28;20212;-47
2022/11/30 00:07:17;;;;;;;74.77;32.43;;;4.90;99.90;;;;;;5009489;28;20224;-53
2022/11/30 00:09:44;;;;;;;67.40;31.50;;;4.90;99.90;;;;;;5025127;28;20203;-49
2022/11/30 00:12:11;;;;;;;72.40;31.87;;;4.90;99.90;;;;;;4995559;28;20282;-51
2022/11/30 00:14:38;;;;;;;74.63;31.70;;;4.90;99.90;;;;;;5024158;28;20200;-54
2022/11/30 00:17:05;;;;;;;70.73;32.77;;;4.90;99.90;;;;;;5000369;28;20673;-48
2022/11/30 00:19:33;;;;;;;66.43;32.53;;;4.90;99.90;;;;;;5021916;28;20215;-51
2022/11/30 00:22:00;;;;;;;71.93;31.50;;;4.90;99.90;;;;;;5012086;28;20208;-48
2022/11/30 00:24:27;;;;;;;66.10;30.60;;;4.90;99.90;;;;;;5022459;28;20200;-47
2022/11/30 00:26:53;;;;;;;66.93;30.80;;;4.90;99.90;;;;;;5014890;28;20215;-47
2022/11/30 00:29:21;;;;;;;62.57;31.90;;;4.90;99.90;;;;;;5003438;28;20211;-44
2022/11/30 00:31:48;;;;;;;75.03;32.87;;;5.00;99.90;;;;;;5015009;28;20562;-46
2022/11/30 00:34:14;;;;;;;76.00;31.60;;;5.00;99.90;;;;;;5022394;28;20207;-43
2022/11/30 00:36:42;;;;;;;70.97;32.73;;;4.90;99.90;;;;;;5022055;28;20767;-43
2022/11/30 00:39:09;;;;;;;77.30;32.07;;;4.90;99.90;;;;;;5022651;28;20184;-43
2022/11/30 00:41:36;;;;;;;69.43;32.20;;;4.90;99.90;;;;;;5024223;28;20207;-49
2022/11/30 00:44:02;;;;;;;76.90;32.87;;;5.00;99.90;;;;;;4998637;28;20216;-42
2022/11/30 00:46:29;;;;;;;73.30;32.57;;;4.90;99.90;;;;;;5024506;28;20212;-45
2022/11/30 00:48:56;;;;;;;76.97;32.83;;;4.90;99.90;;;;;;5012977;28;20204;-47
2022/11/30 00:51:22;;;;;;;85.80;33.93;;;4.90;99.90;;;;;;5024507;28;20266;-46
2022/11/30 00:53:51;;;;;;;76.03;33.93;;;4.90;99.90;;;;;;5015682;28;20220;-49
2022/11/30 00:56:18;;;;;;;72.43;32.70;;;4.90;99.90;;;;;;5021577;28;20219;-43
2022/11/30 00:58:44;;;;;;;75.30;32.70;;;4.90;99.90;;;;;;5021652;28;20630;-44
2022/11/30 01:01:11;;;;;;;72.17;32.53;;;4.90;99.90;;;;;;5006723;28;20211;-46
2022/11/30 01:03:38;;;;;;;80.83;32.97;;;4.90;99.90;;;;;;5021634;28;20279;-46
2022/11/30 01:06:07;;;;;;;76.30;33.30;;;4.90;99.90;;;;;;5016843;28;21041;-45
2022/11/30 01:08:34;;;;;;;67.50;31.13;;;4.90;99.90;;;;;;5017657;28;20688;-47
2022/11/30 01:11:08;;;;;;;73.60;33.53;;;4.90;99.90;;;;;;5021147;28;20203;-43
2022/11/30 01:13:35;;;;;;;81.70;33.23;;;4.90;99.90;;;;;;5023221;28;20219;-46
2022/11/30 01:16:07;;;;;;;69.47;32.73;;;4.90;99.90;;;;;;4997398;28;20208;-45
2022/11/30 01:18:36;;;;;;;82.83;33.63;;;4.90;99.90;;;;;;5023629;28;20196;-49
2022/11/30 01:21:06;;;;;;;75.67;32.90;;;4.90;99.90;;;;;;5011805;28;20199;-44
2022/11/30 01:23:33;;;;;;;69.80;33.47;;;5.00;99.90;;;;;;5023654;28;20200;-46
2022/11/30 01:26:00;;;;;;;73.93;32.47;;;5.00;99.90;;;;;;5009130;28;20206;-44
2022/11/30 01:28:28;;;;;;;69.40;31.20;;;4.90;99.90;;;;;;5024116;28;20218;-46
2022/11/30 01:30:57;;;;;;;76.80;32.77;;;5.00;99.90;;;;;;5003696;28;20223;-46
2022/11/30 01:33:23;;;;;;;76.23;34.23;;;4.90;99.90;;;;;;5017048;28;20216;-45
2022/11/30 01:35:58;;;;;;;67.17;31.50;;;4.90;99.90;;;;;;5014165;28;20282;-46
2022/11/30 01:38:26;;;;;;;73.37;32.30;;;4.90;99.90;;;;;;5023663;28;20200;-45
2022/11/30 01:40:53;;;;;;;73.63;32.60;;;4.90;99.90;;;;;;5008870;28;20199;-44
2022/11/30 01:43:20;;;;;;;76.77;33.30;;;4.90;99.90;;;;;;5016482;28;20196;-43
2022/11/30 01:45:49;;;;;;;76.67;34.03;;;4.90;99.90;;;;;;5000259;28;20207;-45
2022/11/30 01:48:16;;;;;;;73.93;32.90;;;4.90;99.90;;;;;;5013267;28;20227;-45
2022/11/30 01:50:44;;;;;;;71.73;32.17;;;4.90;99.90;;;;;;5018823;28;20203;-46
2022/11/30 01:53:11;;;;;;;75.50;32.97;;;4.90;99.90;;;;;;5018863;28;20212;-45
2022/11/30 01:55:42;;;;;;;77.73;34.47;;;4.90;99.90;;;;;;5016520;28;20577;-46
2022/11/30 01:58:12;;;;;;;75.13;34.13;;;4.90;99.90;;;;;;5023462;28;20226;-44
2022/11/30 02:00:41;;;;;;;77.47;33.83;;;4.90;99.90;;;;;;5006992;28;20216;-46
2022/11/30 02:03:18;;;;;;;72.50;32.37;;;4.90;99.90;;;;;;5005365;28;20246;-46
2022/11/30 02:05:46;;;;;;;83.70;32.13;;;4.90;99.90;;;;;;5021721;28;20731;-49
2022/11/30 02:08:13;;;;;;;82.93;34.00;;;4.90;99.90;;;;;;5009144;28;20228;-46
2022/11/30 02:10:44;;;;;;;80.80;34.77;;;4.90;99.90;;;;;;5014723;28;20195;-49
2022/11/30 02:13:33;;;;;;;72.27;32.23;;;4.90;99.90;;;;;;5021788;28;20200;-45
2022/11/30 02:16:07;;;;;;;69.70;32.70;;;4.90;99.90;;;;;;5022090;28;20208;-48
2022/11/30 02:18:43;;;;;;;74.90;33.23;;;4.90;99.90;;;;;;5007909;28;20811;-43
2022/11/30 02:21:15;;;;;;;78.77;34.20;;;4.90;99.90;;;;;;5021745;28;20204;-49
2022/11/30 02:24:06;;;;;;;75.83;33.47;;;4.90;99.90;;;;;;5012392;28;20893;-46
2022/11/30 02:26:54;;;;;;;69.30;32.03;;;4.90;99.90;;;;;;5013519;28;20223;-46
2022/11/30 02:29:24;;;;;;;77.83;32.13;;;4.90;99.90;;;;;;5009778;28;20200;-46
2022/11/30 02:31:57;;;;;;;81.90;33.30;;;4.90;99.90;;;;;;5017686;28;20211;-47
2022/11/30 02:34:27;;;;;;;76.63;33.27;;;4.90;99.90;;;;;;4993468;28;20220;-49
2022/11/30 02:36:56;;;;;;;77.47;34.20;;;4.90;99.90;;;;;;5022411;28;20224;-45
2022/11/30 02:39:23;;;;;;;74.93;34.23;;;4.90;99.90;;;;;;5004428;28;20223;-44
2022/11/30 02:41:49;;;;;;;78.30;33.90;;;4.90;99.90;;;;;;5022500;28;20207;-45
2022/11/30 02:44:17;;;;;;;80.20;34.23;;;4.90;99.90;;;;;;5019920;28;20208;-47
2022/11/30 02:46:59;;;;;;;72.60;33.20;;;4.90;99.90;;;;;;5014716;28;20228;-47
2022/11/30 02:49:32;;;;;;;80.53;32.93;;;4.90;99.90;;;;;;4998061;28;20286;-47
2022/11/30 02:52:01;;;;;;;76.37;33.23;;;4.90;99.90;;;;;;5022474;28;20200;-44
2022/11/30 02:54:28;;;;;;;74.07;33.70;;;4.90;99.90;;;;;;5008857;28;20293;-43
2022/11/30 02:56:55;;;;;;;77.80;33.70;;;4.90;99.90;;;;;;5021536;28;20742;-42
2022/11/30 02:59:21;;;;;;;77.67;32.87;;;4.90;99.90;;;;;;5001255;28;20215;-44
2022/11/30 03:01:50;;;;;;;75.57;33.63;;;4.90;99.90;;;;;;5018903;28;20214;-45
2022/11/30 03:04:17;;;;;;;74.03;31.67;;;4.90;99.90;;;;;;5006310;28;20370;-43
2022/11/30 03:06:45;;;;;;;82.40;34.90;;;4.90;99.90;;;;;;5024824;28;20235;-44
2022/11/30 03:09:13;;;;;;;79.33;33.80;;;4.90;99.90;;;;;;5015771;28;20295;-47
2022/11/30 03:11:39;;;;;;;78.63;35.27;;;4.90;99.90;;;;;;5024418;28;20200;-46
2022/11/30 03:14:06;;;;;;;87.50;35.67;;;4.90;99.90;;;;;;5015781;28;20207;-46
2022/11/30 03:16:33;;;;;;;84.37;34.43;;;4.90;99.90;;;;;;5025123;28;20219;-44
2022/11/30 03:19:01;;;;;;;79.83;34.03;;;4.90;99.90;;;;;;5004397;28;20210;-46
2022/11/30 03:21:28;;;;;;;73.40;33.67;;;4.90;99.90;;;;;;5026977;28;20192;-44
2022/11/30 03:23:55;;;;;;;78.13;34.17;;;4.90;99.90;;;;;;5022353;28;20583;-44
2022/11/30 03:26:21;;;;;;;83.67;34.30;;;4.90;99.90;;;;;;5005873;28;20243;-45
2022/11/30 03:28:48;;;;;;;80.33;34.90;;;4.90;99.90;;;;;;5023948;28;20202;-43
2022/11/30 03:31:15;;;;;;;102.40;37.07;;;4.90;99.90;;;;;;5024476;28;20196;-45
2022/11/30 03:33:43;;;;;;;84.63;33.63;;;4.90;99.90;;;;;;5017075;28;20216;-45
2022/11/30 03:36:12;;;;;;;79.67;33.30;;;4.90;99.90;;;;;;4998445;28;20310;-46
2022/11/30 03:38:39;;;;;;;80.40;33.30;;;4.90;99.90;;;;;;5019457;28;20279;-43
2022/11/30 03:41:08;;;;;;;78.80;33.93;;;4.90;99.90;;;;;;5015213;28;20205;-44
2022/11/30 03:43:35;;;;;;;86.20;34.27;;;4.90;99.90;;;;;;5024974;28;20199;-43
2022/11/30 03:46:02;;;;;;;87.60;35.20;;;4.90;99.90;;;;;;5021516;28;20192;-42
2022/11/30 03:48:32;;;;;;;85.63;33.70;;;4.90;99.90;;;;;;5025505;28;20742;-43
2022/11/30 03:50:59;;;;;;;85.83;32.60;;;4.90;99.90;;;;;;5004414;28;20200;-46
2022/11/30 03:53:27;;;;;;;84.33;33.10;;;4.90;99.90;;;;;;5024928;28;20335;-47
2022/11/30 03:55:56;;;;;;;84.10;33.20;;;4.90;99.90;;;;;;5007279;28;20211;-44
2022/11/30 03:58:24;;;;;;;80.23;32.63;;;4.90;99.90;;;;;;5025576;28;20409;-46
2022/11/30 04:00:57;;;;;;;85.83;35.73;;;4.90;99.90;;;;;;5022598;28;20215;-44
2022/11/30 04:03:24;;;;;;;80.93;35.47;;;4.90;99.90;;;;;;5022217;28;20200;-48
2022/11/30 04:05:51;;;;;;;92.90;35.57;;;4.90;99.90;;;;;;5010156;28;20218;-49
2022/11/30 04:08:18;;;;;;;77.53;33.40;;;5.00;99.90;;;;;;5020354;28;20228;-48
2022/11/30 04:10:50;;;;;;;83.50;34.40;;;5.00;99.90;;;;;;5016067;28;20200;-44
2022/11/30 04:13:17;;;;;;;90.80;34.90;;;4.90;99.90;;;;;;5015829;28;20211;-44
2022/11/30 04:15:45;;;;;;;81.50;32.57;;;4.90;99.90;;;;;;5022650;28;20192;-50
2022/11/30 04:18:12;;;;;;;92.27;33.90;;;4.90;99.90;;;;;;5022959;28;20288;-47
2022/11/30 04:20:38;;;;;;;83.97;34.53;;;4.90;99.90;;;;;;5016647;28;20204;-53
2022/11/30 04:23:05;;;;;;;97.70;35.57;;;4.90;99.90;;;;;;5008316;28;20212;-50
2022/11/30 04:25:33;;;;;;;76.40;32.87;;;4.90;99.90;;;;;;5024904;28;20200;-45
2022/11/30 04:28:02;;;;;;;86.63;33.47;;;4.90;99.90;;;;;;5011431;28;20895;-47
2022/11/30 04:30:29;;;;;;;87.83;34.57;;;4.90;99.90;;;;;;5018403;28;20346;-49
2022/11/30 04:32:56;;;;;;;93.30;36.10;;;4.90;99.90;;;;;;5009952;28;20200;-47
2022/11/30 04:35:23;;;;;;;90.90;33.93;;;4.90;99.90;;;;;;5024744;28;20212;-45
2022/11/30 04:37:50;;;;;;;87.63;36.27;;;4.90;99.90;;;;;;5002314;28;20236;-47
2022/11/30 04:40:17;;;;;;;89.37;37.03;;;4.90;99.90;;;;;;5020792;28;20204;-47
2022/11/30 04:42:44;;;;;;;91.07;34.83;;;4.90;99.90;;;;;;5009440;28;20255;-47
2022/11/30 04:45:12;;;;;;;88.17;34.27;;;4.90;99.90;;;;;;5016810;28;20211;-48
2022/11/30 04:47:40;;;;;;;95.30;34.73;;;4.90;99.90;;;;;;5024364;28;20216;-46
2022/11/30 04:50:08;;;;;;;80.73;34.47;;;4.90;99.90;;;;;;5020397;28;20275;-45
2022/11/30 04:52:36;;;;;;;90.33;35.07;;;4.90;99.90;;;;;;5024443;28;20214;-44
2022/11/30 04:55:04;;;;;;;90.60;35.10;;;4.90;99.90;;;;;;5001380;28;20215;-47
2022/11/30 04:57:31;;;;;;;84.53;32.73;;;4.90;99.90;;;;;;5017653;28;20216;-46
2022/11/30 04:59:58;;;;;;;89.73;34.07;;;4.90;99.90;;;;;;5019949;28;20200;-45
2022/11/30 05:02:29;;;;;;;86.13;34.13;;;4.90;99.90;;;;;;5016826;28;20208;-44
2022/11/30 05:04:56;;;;;;;88.50;33.53;;;4.90;99.90;;;;;;5017817;28;20238;-47
2022/11/30 05:07:23;;;;;;;91.63;34.07;;;4.90;99.90;;;;;;5018150;28;20731;-46
2022/11/30 05:09:50;;;;;;;97.10;35.23;;;4.90;99.90;;;;;;5004132;28;20204;-47
2022/11/30 05:12:17;;;;;;;90.63;33.97;;;4.90;99.90;;;;;;5005184;28;20294;-47
2022/11/30 05:14:43;;;;;;;86.43;33.47;;;4.80;99.90;;;;;;5017090;28;20204;-47
2022/11/30 05:17:10;;;;;;;92.13;34.23;;;4.80;99.90;;;;;;5019448;28;20223;-46
2022/11/30 05:19:38;;;;;;;92.80;34.00;;;4.80;99.90;;;;;;5011692;28;20200;-44
2022/11/30 05:22:05;;;;;;;85.77;34.47;;;4.90;99.90;;;;;;5009153;28;20204;-44
2022/11/30 05:24:33;;;;;;;83.27;33.87;;;4.90;99.90;;;;;;4994117;28;20200;-43
2022/11/30 05:26:59;;;;;;;98.60;36.57;;;4.90;99.90;;;;;;5017361;28;20229;-43
2022/11/30 05:29:26;;;;;;;85.90;32.17;;;4.90;99.90;;;;;;5011369;28;20204;-45
2022/11/30 05:31:53;;;;;;;85.20;33.47;;;4.80;99.90;;;;;;5011104;28;20538;-48
2022/11/30 05:34:20;;;;;;;83.63;33.47;;;4.80;99.90;;;;;;5012735;28;20240;-46
2022/11/30 05:36:48;;;;;;;87.40;34.20;;;4.80;99.90;;;;;;5019629;28;20221;-43
2022/11/30 05:39:15;;;;;;;79.73;33.60;;;4.80;99.90;;;;;;5002638;28;20208;-51
2022/11/30 05:41:42;;;;;;;86.47;32.73;;;4.80;99.90;;;;;;5015695;28;20207;-44
2022/11/30 05:44:09;;;;;;;78.87;31.40;;;4.90;99.90;;;;;;5011648;28;20201;-44
2022/11/30 05:46:37;;;;;;;77.20;32.90;;;4.90;99.90;;;;;;5010301;28;20306;-43
2022/11/30 05:49:07;;;;;;;91.10;33.23;;;4.90;99.90;;;;;;5014006;28;20262;-44
2022/11/30 05:51:34;;;;;;;80.53;31.57;;;4.90;99.90;;;;;;5010658;28;20937;-45
2022/11/30 05:54:02;;;;;;;82.93;33.83;;;4.90;99.90;;;;;;5003842;28;20216;-43
2022/11/30 05:56:29;;;;;;;83.03;33.37;;;4.90;99.90;;;;;;5003443;28;20897;-44
2022/11/30 05:58:56;;;;;;;80.27;31.77;;;4.80;99.90;;;;;;5019317;28;20211;-44
2022/11/30 06:01:25;;;;;;;84.93;32.73;;;4.80;99.90;;;;;;5004273;28;20953;-46
2022/11/30 06:03:52;;;;;;;85.30;33.40;;;4.90;99.90;;;;;;5012039;28;20280;-45
2022/11/30 06:06:20;;;;;;;97.17;32.80;;;4.80;99.90;;;;;;5000711;28;20984;-43
2022/11/30 06:08:48;;;;;;;78.90;32.93;;;4.90;99.90;;;;;;5019373;28;20204;-44
2022/11/30 06:11:17;;;;;;;93.33;32.90;;;4.90;99.90;;;;;;4993003;28;20214;-44
2022/11/30 06:13:44;;;;;;;81.53;32.43;;;4.90;99.90;;;;;;5016372;28;20208;-44
2022/11/30 06:16:11;;;;;;;80.13;31.17;;;4.90;99.90;;;;;;5001415;28;20208;-48
2022/11/30 06:18:38;;;;;;;82.83;33.30;;;4.90;99.90;;;;;;5014916;28;20382;-44
2022/11/30 06:21:08;;;;;;;83.73;32.30;;;4.90;99.90;;;;;;4999284;28;20223;-49
2022/11/30 06:23:36;;;;;;;90.60;32.87;;;4.90;99.90;;;;;;5020032;28;20345;-46
2022/11/30 06:26:04;;;;;;;87.37;31.63;;;4.90;99.90;;;;;;5010188;28;20188;-47
2022/11/30 06:28:33;;;;;;;79.37;32.90;;;4.90;99.90;;;;;;5005541;28;20215;-47
2022/11/30 06:31:01;;;;;;;86.50;33.27;;;4.90;99.90;;;;;;5009425;28;20211;-46
2022/11/30 06:33:28;;;;;;;90.37;34.30;;;4.90;99.90;;;;;;5011340;28;20203;-44
2022/11/30 06:35:55;;;;;;;84.43;33.77;;;4.90;99.90;;;;;;5021286;28;20220;-46
2022/11/30 06:38:23;;;;;;;85.93;34.67;;;4.90;99.90;;;;;;5010031;28;20214;-44
2022/11/30 06:40:50;;;;;;;84.63;32.93;;;4.90;99.90;;;;;;5011633;28;20653;-44
2022/11/30 06:43:16;;;;;;;89.60;33.73;;;4.90;99.90;;;;;;4996397;28;20212;-45
2022/11/30 06:45:45;;;;;;;82.30;32.37;;;4.90;99.90;;;;;;5010677;28;20196;-49
2022/11/30 06:48:12;;;;;;;76.10;32.00;;;4.90;99.90;;;;;;5010709;28;20228;-46
2022/11/30 06:50:40;;;;;;;85.87;32.80;;;4.90;99.90;;;;;;5008730;28;20211;-47
2022/11/30 06:53:07;;;;;;;87.53;33.37;;;4.90;99.90;;;;;;5013670;28;20204;-45
2022/11/30 06:55:34;;;;;;;87.00;32.67;;;4.90;99.90;;;;;;5017057;28;20208;-46
2022/11/30 06:58:05;;;;;;;92.43;34.27;;;4.90;99.90;;;;;;4997174;28;20348;-42
2022/11/30 07:00:33;;;;;;;87.60;33.87;;;4.90;99.90;;;;;;5017155;28;20660;-45
2022/11/30 07:03:02;;;;;;;78.90;32.73;;;4.90;99.90;;;;;;4999294;28;20773;-43
2022/11/30 07:05:29;;;;;;;90.47;34.43;;;4.90;99.90;;;;;;5013742;28;20204;-44
2022/11/30 07:07:56;;;;;;;91.57;34.00;;;4.90;99.90;;;;;;5002484;28;20220;-46
2022/11/30 07:10:22;;;;;;;83.40;33.13;;;4.90;99.90;;;;;;5020151;28;20192;-45
2022/11/30 07:12:49;;;;;;;87.20;35.00;;;4.90;99.90;;;;;;5011248;28;20204;-47
2022/11/30 07:15:17;;;;;;;95.13;35.13;;;4.90;99.90;;;;;;5013943;28;20712;-46
2022/11/30 07:17:44;;;;;;;81.53;33.10;;;4.90;99.90;;;;;;5019049;28;20277;-45
2022/11/30 07:20:13;;;;;;;88.30;34.60;;;4.90;99.90;;;;;;5020659;28;20323;-43
2022/11/30 07:22:40;;;;;;;101.23;36.23;;;4.90;99.90;;;;;;5008055;28;20196;-46
2022/11/30 07:27:52;;;;;;;84.43;34.50;;;4.90;99.90;;;;;;5009205;28;20811;-48
2022/11/30 07:30:19;;;;;;;78.13;32.83;;;4.90;99.90;;;;;;5018287;28;20672;-45
2022/11/30 07:32:46;;;;;;;86.43;31.97;;;4.80;99.90;;;;;;5015866;28;20222;-45
2022/11/30 07:35:14;;;;;;;77.40;33.13;;;4.90;99.90;;;;;;5001544;28;20225;-55
2022/11/30 07:37:41;;;;;;;81.53;33.07;;;4.90;99.90;;;;;;5017729;28;20216;-54
2022/11/30 07:40:09;;;;;;;94.30;35.60;;;4.90;99.90;;;;;;5023619;28;20223;-48
2022/11/30 07:42:36;;;;;;;88.67;33.77;;;4.90;99.90;;;;;;5017758;28;20210;-48
2022/11/30 07:45:04;;;;;;;94.17;34.17;;;4.90;99.90;;;;;;4995973;28;20332;-47
2022/11/30 07:47:31;;;;;;;95.03;34.60;;;4.90;99.90;;;;;;5022981;28;20266;-45
2022/11/30 07:49:58;;;;;;;92.57;34.67;;;4.90;99.90;;;;;;5015611;28;20212;-44
2022/11/30 07:52:25;;;;;;;86.53;35.33;;;4.90;99.90;;;;;;5017580;28;20553;-44
2022/11/30 07:54:52;;;;;;;104.03;35.60;;;4.90;99.90;;;;;;5004535;28;20289;-44
2022/11/30 07:57:41;;;;;;;102.97;35.40;;;4.90;99.90;;;;;;5000524;28;21668;-47
2022/11/30 08:00:09;;;;;;;89.63;34.53;;;4.90;99.90;;;;;;5001751;28;20212;-44
2022/11/30 08:02:38;;;;;;;91.83;34.23;;;4.90;99.90;;;;;;5012711;28;20536;-44
2022/11/30 08:05:06;;;;;;;90.60;34.67;;;4.90;99.90;;;;;;5024182;28;20624;-43
2022/11/30 08:07:34;;;;;;;96.23;36.37;;;4.90;99.90;;;;;;4997757;28;20243;-46
2022/11/30 08:10:01;;;;;;;88.40;32.90;;;4.90;99.90;;;;;;5017591;28;20258;-45
2022/11/30 08:12:28;;;;;;;87.63;34.13;;;4.90;99.90;;;;;;5014403;28;20288;-45
2022/11/30 08:14:55;;;;;;;92.23;34.97;;;4.90;99.90;;;;;;4998696;28;20312;-45
2022/11/30 08:17:22;;;;;;;81.90;33.93;;;4.90;99.90;;;;;;5017387;28;21207;-49
2022/11/30 08:19:48;;;;;;;99.13;34.63;;;4.90;99.90;;;;;;5009270;28;20191;-46
2022/11/30 08:22:15;;;;;;;95.87;36.10;;;4.90;99.90;;;;;;5009061;28;20678;-46
2022/11/30 08:24:44;;;;;;;83.80;34.40;;;4.90;99.90;;;;;;5007021;28;20280;-44
2022/11/30 08:27:10;;;;;;;87.83;34.20;;;4.90;99.90;;;;;;5013242;28;20217;-46
2022/11/30 08:29:37;;;;;;;96.17;34.70;;;5.00;99.90;;;;;;5013590;28;20762;-45
2022/11/30 08:32:04;;;;;;;97.27;36.70;;;5.00;99.90;;;;;;4999931;28;21435;-48
2022/11/30 08:34:31;;;;;;;90.73;34.70;;;5.00;99.90;;;;;;4999628;28;20196;-46
2022/11/30 08:36:58;;;;;;;95.83;35.73;;;5.00;99.90;;;;;;5012977;28;20247;-44
2022/11/30 08:39:26;;;;;;;88.77;35.80;;;5.00;99.90;;;;;;5014650;28;20203;-47
2022/11/30 08:41:54;;;;;;;94.83;35.50;;;5.00;99.90;;;;;;5017443;28;20203;-43
2022/11/30 08:44:21;;;;;;;84.00;33.90;;;5.00;99.90;;;;;;5015094;28;20199;-45
2022/11/30 08:46:48;;;;;;;84.67;34.87;;;5.00;99.90;;;;;;5002524;28;20231;-43
2022/11/30 08:49:15;;;;;;;86.97;35.17;;;5.00;99.90;;;;;;5021048;28;20657;-45
2022/11/30 08:51:42;;;;;;;84.93;34.50;;;5.00;99.90;;;;;;5011151;28;20199;-43
2022/11/30 08:54:09;;;;;;;85.33;32.63;;;5.00;99.90;;;;;;5009171;28;20200;-45
2022/11/30 08:56:35;;;;;;;87.40;33.33;;;5.00;99.90;;;;;;5010400;28;20220;-47
2022/11/30 08:59:03;;;;;;;81.73;33.63;;;5.00;99.90;;;;;;5023615;28;20224;-43
2022/11/30 09:01:30;;;;;;;76.53;32.43;;;5.00;99.90;;;;;;5013566;28;20266;-48
2022/11/30 09:03:57;;;;;;;73.80;33.13;;;5.10;99.90;;;;;;5001406;28;20216;-46
2022/11/30 09:06:25;;;;;;;70.33;31.17;;;5.00;99.90;;;;;;5007305;28;20223;-47
2022/11/30 09:08:54;;;;;;;76.17;31.33;;;5.00;99.90;;;;;;5004803;28;20696;-45
2022/11/30 09:11:23;;;;;;;73.53;32.13;;;5.00;99.90;;;;;;5025376;28;20204;-48
2022/11/30 09:13:52;;;;;;;74.87;32.97;;;5.00;99.90;;;;;;5022277;28;20196;-44
2022/11/30 09:16:21;;;;;;;75.17;32.77;;;5.00;99.90;;;;;;5021007;28;20213;-43
2022/11/30 09:18:50;;;;;;;74.70;32.43;;;5.00;99.90;;;;;;4998869;28;20851;-46
2022/11/30 09:21:20;;;;;;;76.03;32.10;;;5.10;99.90;;;;;;5017028;28;20193;-48
2022/11/30 09:23:48;;;;;;;68.10;32.83;;;5.10;99.90;;;;;;5001967;28;20215;-44
2022/11/30 09:26:17;;;;;;;64.63;30.23;;;5.10;99.90;;;;;;5012356;28;20204;-47
2022/11/30 09:28:45;;;;;;;65.87;31.30;;;5.10;99.90;;;;;;5015677;28;20930;-45
2022/11/30 09:31:15;;;;;;;71.03;31.60;;;5.20;99.90;;;;;;5014042;28;20727;-44
2022/11/30 09:33:44;;;;;;;69.60;32.10;;;5.20;99.90;;;;;;5000536;28;20423;-46
2022/11/30 09:36:12;;;;;;;66.10;28.77;;;5.20;99.90;;;;;;5023088;28;20220;-47
2022/11/30 09:38:41;;;;;;;68.67;30.33;;;5.20;99.90;;;;;;5007737;28;20266;-45
2022/11/30 09:41:37;;;;;;;63.87;30.27;;;5.20;99.90;;;;;;5019496;28;20253;-43
2022/11/30 09:44:10;;;;;;;60.47;28.07;;;5.20;99.90;;;;;;5013040;28;20645;-50
2022/11/30 09:46:41;;;;;;;69.43;29.97;;;5.20;99.90;;;;;;5012710;28;20208;-44
2022/11/30 09:49:17;;;;;;;63.77;29.03;;;5.20;99.90;;;;;;5018158;28;20208;-47
2022/11/30 09:51:46;;;;;;;63.43;28.53;;;5.20;99.90;;;;;;5000560;28;20927;-44
2022/11/30 09:54:16;;;;;;;61.20;28.17;;;5.20;99.90;;;;;;5009362;28;20204;-45
2022/11/30 09:56:44;;;;;;;55.07;27.67;;;5.20;99.90;;;;;;5000674;28;20228;-44
2022/11/30 09:59:18;;;;;;;62.73;28.13;;;5.20;99.90;;;;;;5016665;28;20200;-43
2022/11/30 10:01:47;;;;;;;61.77;29.07;;;5.30;99.90;;;;;;5010830;28;20277;-46
2022/11/30 10:04:22;;;;;;;56.63;27.87;;;5.30;99.90;;;;;;5006795;28;20295;-47
2022/11/30 10:06:59;;;;;;;58.37;27.80;;;5.30;99.90;;;;;;5008208;28;20325;-45
2022/11/30 10:09:39;;;;;;;54.67;26.83;;;5.30;99.90;;;;;;5009968;28;20274;-47
2022/11/30 10:12:11;;;;;;;49.37;27.00;;;5.30;99.90;;;;;;5014531;28;20211;-45
2022/11/30 10:15:07;;;;;;;48.40;24.47;;;5.30;99.90;;;;;;5015803;28;20199;-43
2022/11/30 10:17:43;;;;;;;59.87;27.87;;;5.30;99.90;;;;;;5009570;28;20219;-49
2022/11/30 10:20:27;;;;;;;55.70;25.80;;;5.30;99.90;;;;;;5015182;28;20202;-44
2022/11/30 10:23:07;;;;;;;51.07;24.90;;;5.30;99.90;;;;;;5017688;28;20200;-44
2022/11/30 10:25:44;;;;;;;50.73;25.87;;;5.30;99.90;;;;;;5005468;28;20877;-47
2022/11/30 10:28:17;;;;;;;53.97;27.30;;;5.30;99.90;;;;;;5016260;28;20649;-46
2022/11/30 10:30:47;;;;;;;51.77;26.60;;;5.30;99.90;;;;;;5010574;28;20982;-46
2022/11/30 10:33:18;;;;;;;61.20;28.30;;;5.30;99.90;;;;;;5015434;28;20668;-44
2022/11/30 10:35:49;;;;;;;53.03;26.07;;;5.30;99.90;;;;;;5015616;28;20223;-42
2022/11/30 10:38:21;;;;;;;50.60;26.37;;;5.30;99.90;;;;;;4997440;28;21179;-46
2022/11/30 10:40:54;;;;;;;55.37;26.70;;;5.30;99.90;;;;;;5005570;28;20734;-46
2022/11/30 10:43:27;;;;;;;50.67;24.80;;;5.30;99.90;;;;;;5012760;28;20220;-47
2022/11/30 10:45:55;;;;;;;54.73;27.93;;;5.30;99.90;;;;;;5013560;28;20286;-41
2022/11/30 10:48:28;;;;;;;52.90;25.93;;;5.30;99.90;;;;;;5013536;28;20211;-48
2022/11/30 10:50:57;;;;;;;48.40;26.47;;;5.30;99.90;;;;;;5020130;28;20199;-42
2022/11/30 10:53:24;;;;;;;51.93;27.10;;;5.30;99.90;;;;;;4998789;28;20216;-43
2022/11/30 10:55:58;;;;;;;49.63;24.43;;;5.30;99.90;;;;;;5015906;28;20227;-43
2022/11/30 10:58:29;;;;;;;48.40;26.13;;;5.40;99.90;;;;;;5004007;28;20252;-49
2022/11/30 11:01:03;;;;;;;49.27;25.47;;;5.30;99.90;;;;;;5012857;28;20208;-44
2022/11/30 11:03:31;;;;;;;46.40;25.57;;;5.40;99.90;;;;;;5018527;28;20207;-45
2022/11/30 11:06:12;;;;;;;48.23;25.97;;;5.40;99.90;;;;;;5012777;28;20203;-46
2022/11/30 11:08:44;;;;;;;48.13;25.60;;;5.40;99.90;;;;;;5005824;28;20277;-43
2022/11/30 11:11:33;;;;;;;46.17;24.80;;;5.40;99.90;;;;;;5020188;28;20291;-47
2022/11/30 11:14:16;;;;;;;45.20;24.67;;;5.30;99.90;;;;;;5010860;28;20204;-42
2022/11/30 11:16:52;;;;;;;43.47;24.07;;;5.40;99.90;;;;;;5003779;28;20216;-44
2022/11/30 11:19:31;;;;;;;52.87;26.20;;;5.40;99.90;;;;;;4999831;28;20212;-45
2022/11/30 11:22:02;;;;;;;47.23;25.57;;;5.40;99.90;;;;;;5015866;28;20203;-47
2022/11/30 11:24:29;;;;;;;44.37;26.10;;;5.40;99.90;;;;;;5005411;28;20339;-44
2022/11/30 11:26:57;;;;;;;51.03;25.23;;;5.40;99.90;;;;;;5013101;28;20215;-46
2022/11/30 11:29:31;;;;;;;48.67;26.23;;;5.40;99.90;;;;;;5004024;28;20940;-42
2022/11/30 11:32:20;;;;;;;49.43;26.07;;;5.40;99.90;;;;;;5011747;28;20266;-49
2022/11/30 11:34:48;;;;;;;46.90;24.33;;;5.40;99.90;;;;;;5014967;28;20744;-47
2022/11/30 11:37:20;;;;;;;47.67;24.17;;;5.40;99.90;;;;;;5012372;28;20289;-45
2022/11/30 11:39:59;;;;;;;48.27;25.30;;;5.40;99.90;;;;;;5002616;28;20211;-48
2022/11/30 11:42:27;;;;;;;48.20;25.07;;;5.40;99.90;;;;;;5013417;28;20207;-45
2022/11/30 11:44:56;;;;;;;46.03;24.13;;;5.40;99.90;;;;;;5016110;28;20211;-43
2022/11/30 11:47:26;;;;;;;46.60;24.77;;;5.40;99.90;;;;;;5021386;28;20950;-44
2022/11/30 11:50:05;;;;;;;43.30;24.30;;;5.40;99.90;;;;;;5014245;28;20209;-43
2022/11/30 11:52:33;;;;;;;46.33;24.27;;;5.40;99.90;;;;;;5010433;28;20321;-42
2022/11/30 11:55:04;;;;;;;44.27;24.57;;;5.40;99.90;;;;;;5008163;28;20208;-45
2022/11/30 11:57:37;;;;;;;45.17;24.67;;;5.40;99.90;;;;;;5022494;28;20223;-42
2022/11/30 12:00:06;;;;;;;44.93;22.90;;;5.30;99.90;;;;;;5009226;28;20204;-44
2022/11/30 12:02:37;;;;;;;42.97;24.33;;;5.30;99.90;;;;;;5012052;28;20209;-41
2022/11/30 12:05:11;;;;;;;46.43;24.87;;;5.30;99.90;;;;;;5008434;28;20208;-44
2022/11/30 12:07:45;;;;;;;42.27;23.00;;;5.40;99.90;;;;;;5014395;28;20220;-45
2022/11/30 12:10:26;;;;;;;38.97;22.57;;;5.40;99.90;;;;;;4993611;28;20212;-46
2022/11/30 12:12:54;;;;;;;43.00;22.33;;;5.30;99.90;;;;;;5012674;28;20632;-47
2022/11/30 12:15:26;;;;;;;39.43;22.20;;;5.30;99.90;;;;;;5010082;28;20269;-45
2022/11/30 12:18:00;;;;;;;41.27;23.83;;;5.40;99.90;;;;;;5016006;28;20226;-42
2022/11/30 12:20:34;;;;;;;40.80;21.97;;;5.40;99.90;;;;;;5001541;28;20251;-42
2022/11/30 12:23:16;;;;;;;37.23;21.73;;;5.40;99.90;;;;;;5013518;28;20196;-44
2022/11/30 12:25:50;;;;;;;38.43;21.60;;;5.40;99.90;;;;;;4998365;28;20212;-47
2022/11/30 12:28:26;;;;;;;39.60;22.37;;;5.30;99.90;;;;;;5016059;28;20293;-48
2022/11/30 12:31:09;;;;;;;43.50;23.17;;;5.40;99.90;;;;;;5012280;28;20216;-43
2022/11/30 12:34:02;;;;;;;44.47;22.20;;;5.40;99.90;;;;;;5016470;28;20196;-50
2022/11/30 12:36:43;;;;;;;38.73;20.93;;;5.40;99.90;;;;;;5003932;28;20215;-46
2022/11/30 12:39:19;;;;;;;38.87;22.10;;;5.30;99.90;;;;;;5007240;28;20296;-46
2022/11/30 12:41:51;;;;;;;37.20;21.60;;;5.30;99.90;;;;;;4994763;28;20218;-44
2022/11/30 12:44:29;;;;;;;38.93;22.37;;;5.40;99.90;;;;;;5019860;28;20193;-47
2022/11/30 12:47:05;;;;;;;37.30;20.60;;;5.30;99.90;;;;;;5005242;28;20204;-46
2022/11/30 12:49:50;;;;;;;44.30;23.17;;;5.40;99.90;;;;;;5016478;28;20226;-47
2022/11/30 12:52:31;;;;;;;42.13;23.07;;;5.40;99.90;;;;;;5013212;28;20204;-44